Time;durP1;ratioP1;P1;durP2;ratioP2;P2;SDS_P1;SDS_P2;PMS_P1;PMS_P2;Temp;Humidity;BMP_temperature;BMP_pressure;BME280_temperature;BME280_humidity;BME280_pressure;Samples;Min_cycle;Max_cycle;Signal;HPM_P1;HPM_P2
2021/06/04 00:00:00;;;;;;;6.93;3.58;;;;;;;15.72;54.07;102400.72;5072981;28;20059;-73
2021/06/04 00:02:25;;;;;;;8.32;4.80;;;;;;;15.69;54.00;102399.34;5076535;28;20028;-73
2021/06/04 00:04:51;;;;;;;5.85;3.88;;;;;;;15.68;54.02;102405.06;5058578;28;20023;-73
2021/06/04 00:07:16;;;;;;;6.75;4.35;;;;;;;15.64;53.88;102396.53;5066484;28;20396;-72
2021/06/04 00:09:41;;;;;;;6.22;4.20;;;;;;;15.63;53.90;102397.66;5075466;28;20020;-72
2021/06/04 00:12:07;;;;;;;6.75;3.95;;;;;;;15.60;53.66;102398.16;5068962;28;20662;-73
2021/06/04 00:14:39;;;;;;;4.10;3.70;;;;;;;15.58;53.72;102392.13;5073551;28;20032;-74
2021/06/04 00:17:10;;;;;;;4.32;3.92;;;;;;;15.54;53.65;102391.81;5082948;28;20051;-73
2021/06/04 00:19:36;;;;;;;5.65;4.20;;;;;;;15.52;53.74;102388.53;5061168;28;20052;-72
2021/06/04 00:22:18;;;;;;;6.03;3.60;;;;;;;15.50;53.67;102385.22;5059291;28;20382;-73
2021/06/04 00:24:44;;;;;;;7.22;3.72;;;;;;;15.49;53.42;102388.22;5056490;28;21748;-73
2021/06/04 00:27:10;;;;;;;4.10;3.70;;;;;;;15.47;53.40;102391.25;5077463;28;20044;-72
2021/06/04 00:29:35;;;;;;;5.35;3.95;;;;;;;15.45;53.23;102396.16;5070535;28;20038;-73
2021/06/04 00:32:00;;;;;;;5.22;3.53;;;;;;;15.42;53.20;102388.47;5084529;28;20032;-73
2021/06/04 00:34:26;;;;;;;6.10;3.50;;;;;;;15.41;53.27;102386.78;5081067;28;20469;-73
2021/06/04 00:36:51;;;;;;;4.15;3.65;;;;;;;15.41;52.97;102384.03;5073147;28;20489;-73
2021/06/04 00:39:18;;;;;;;4.30;3.60;;;;;;;15.40;53.13;102389.81;5073230;28;20060;-73
2021/06/04 00:42:00;;;;;;;5.85;3.65;;;;;;;15.35;53.24;102387.03;5073220;28;20032;-72
2021/06/04 00:44:26;;;;;;;5.07;4.10;;;;;;;15.31;53.43;102381.25;5072429;28;20028;-72
2021/06/04 00:46:51;;;;;;;4.47;3.83;;;;;;;15.24;54.02;102381.50;5068965;28;20457;-73
2021/06/04 00:49:17;;;;;;;5.85;3.40;;;;;;;15.19;54.07;102378.72;5072638;28;20165;-73
2021/06/04 00:51:51;;;;;;;5.97;4.22;;;;;;;15.14;54.82;102381.44;5078698;28;20035;-73
2021/06/04 00:54:17;;;;;;;4.72;4.07;;;;;;;15.09;54.94;102375.94;5071631;28;20054;-73
2021/06/04 00:56:43;;;;;;;5.30;4.00;;;;;;;15.05;55.20;102377.53;5058421;28;20037;-73
2021/06/04 00:59:09;;;;;;;5.53;4.40;;;;;;;15.00;55.34;102372.00;5072038;28;20039;-73
2021/06/04 01:01:35;;;;;;;5.90;3.97;;;;;;;14.95;55.15;102370.06;5067758;28;20056;-72
2021/06/04 01:04:12;;;;;;;8.05;4.68;;;;;;;14.88;55.51;102369.47;5075129;28;20470;-73
2021/06/04 01:07:11;;;;;;;4.00;3.70;;;;;;;14.84;55.38;102362.81;5064257;28;20470;-73
2021/06/04 01:10:13;;;;;;;7.30;4.30;;;;;;;14.78;55.55;102377.63;5039256;28;20077;-73
2021/06/04 01:12:57;;;;;;;6.30;4.00;;;;;;;14.72;55.52;102368.50;5062040;28;20054;-73
2021/06/04 01:15:42;;;;;;;6.90;4.50;;;;;;;14.68;55.42;102372.91;5072843;28;20514;-72
2021/06/04 01:18:34;;;;;;;6.97;4.03;;;;;;;14.67;55.71;102375.88;5063626;28;20036;-72
2021/06/04 01:21:03;;;;;;;5.85;4.15;;;;;;;14.62;55.23;102374.78;5071300;28;20086;-73
2021/06/04 01:23:50;;;;;;;6.10;4.18;;;;;;;14.58;55.70;102376.38;5071750;28;20078;-72
2021/06/04 01:26:24;;;;;;;4.38;3.67;;;;;;;14.54;55.53;102372.50;5071384;28;20500;-72
2021/06/04 01:28:52;;;;;;;5.93;4.05;;;;;;;14.50;55.57;102371.31;5076152;28;20044;-73
2021/06/04 01:31:47;;;;;;;5.70;4.38;;;;;;;14.48;55.77;102373.50;5066283;28;20070;-73
2021/06/04 01:34:15;;;;;;;4.32;3.92;;;;;;;14.46;55.60;102372.97;5056072;28;20079;-73
2021/06/04 01:36:50;;;;;;;4.45;3.80;;;;;;;14.41;55.82;102367.41;5070712;28;20074;-73
2021/06/04 01:39:41;;;;;;;5.88;4.05;;;;;;;14.39;55.91;102369.59;5039399;28;20028;-73
2021/06/04 01:42:07;;;;;;;4.35;3.53;;;;;;;14.39;55.93;102364.91;5076977;28;20033;-73
2021/06/04 01:44:38;;;;;;;4.93;4.43;;;;;;;14.37;55.86;102372.56;5053417;28;20020;-73
2021/06/04 01:47:09;;;;;;;4.97;3.65;;;;;;;14.37;56.10;102371.75;5076164;28;20035;-73
2021/06/04 01:49:37;;;;;;;6.07;3.83;;;;;;;14.35;55.94;102368.44;5035070;28;20047;-73
2021/06/04 01:52:07;;;;;;;8.32;4.20;;;;;;;14.32;56.30;102375.31;5068865;28;20033;-72
2021/06/04 01:54:44;;;;;;;6.97;3.88;;;;;;;14.30;56.29;102373.91;5063039;28;20082;-72
2021/06/04 01:57:13;;;;;;;5.05;4.30;;;;;;;14.28;56.26;102367.84;5073525;28;20465;-73
2021/06/04 01:59:41;;;;;;;4.88;4.22;;;;;;;14.25;56.31;102371.09;5051977;28;20109;-73
2021/06/04 02:02:07;;;;;;;6.25;4.20;;;;;;;14.25;56.33;102371.94;5066070;28;20465;-72
2021/06/04 02:04:36;;;;;;;6.85;3.67;;;;;;;14.27;56.31;102371.66;5063511;28;20052;-74
2021/06/04 02:07:06;;;;;;;7.30;4.07;;;;;;;14.25;56.15;102379.34;5073559;28;20485;-73
2021/06/04 02:09:32;;;;;;;4.93;3.75;;;;;;;14.24;56.08;102378.50;5069144;28;20534;-72
2021/06/04 02:11:57;;;;;;;5.50;4.25;;;;;;;14.24;56.22;102384.00;5072188;28;20028;-72
2021/06/04 02:14:26;;;;;;;4.80;4.25;;;;;;;14.21;56.21;102374.38;5069126;28;20081;-72
2021/06/04 02:17:24;;;;;;;4.90;4.07;;;;;;;14.19;56.54;102381.22;5073672;28;20016;-72
2021/06/04 02:20:22;;;;;;;6.68;4.50;;;;;;;14.18;56.51;102380.34;5046317;28;20115;-72
2021/06/04 02:23:02;;;;;;;5.85;4.15;;;;;;;14.16;56.84;102381.72;5070155;28;20032;-72
2021/06/04 02:26:01;;;;;;;7.43;3.72;;;;;;;14.13;56.69;102383.06;5062324;28;20554;-71
2021/06/04 02:28:36;;;;;;;7.28;4.35;;;;;;;14.11;56.63;102378.94;5069386;28;20032;-72
2021/06/04 02:31:04;;;;;;;7.35;4.13;;;;;;;14.07;56.61;102386.81;5074974;28;20104;-72
2021/06/04 02:33:52;;;;;;;5.10;4.60;;;;;;;14.05;56.81;102383.53;5059273;28;20044;-72
2021/06/04 02:36:21;;;;;;;4.72;4.18;;;;;;;14.02;56.96;102386.75;5074742;28;20032;-72
2021/06/04 02:39:04;;;;;;;4.63;3.83;;;;;;;13.98;56.96;102391.13;5070436;28;20103;-72
2021/06/04 02:41:36;;;;;;;5.15;4.50;;;;;;;13.98;57.06;102391.13;5071305;28;20028;-72
2021/06/04 02:44:10;;;;;;;12.50;4.53;;;;;;;13.96;57.13;102388.63;5058152;28;20474;-72
2021/06/04 02:46:39;;;;;;;5.22;4.20;;;;;;;13.94;57.26;102387.22;5068320;28;20102;-72
2021/06/04 02:49:06;;;;;;;8.45;4.25;;;;;;;13.93;57.09;102393.81;5042912;28;20037;-72
2021/06/04 02:51:34;;;;;;;6.60;4.30;;;;;;;13.93;57.32;102396.53;5070735;28;20032;-72
2021/06/04 02:54:06;;;;;;;6.47;4.57;;;;;;;13.91;57.36;102395.97;5069961;28;20024;-73
2021/06/04 02:56:34;;;;;;;5.90;4.53;;;;;;;13.91;57.53;102393.22;5075533;28;20028;-72
2021/06/04 02:59:07;;;;;;;5.38;4.60;;;;;;;13.91;57.82;102395.97;5053823;28;20051;-71
2021/06/04 03:01:33;;;;;;;4.78;4.07;;;;;;;13.92;57.74;102392.16;5064766;28;20111;-71
2021/06/04 03:04:01;;;;;;;6.50;4.40;;;;;;;13.92;58.23;102397.66;5071510;28;20051;-72
2021/06/04 03:06:29;;;;;;;8.25;4.45;;;;;;;13.92;58.47;102392.16;5076667;28;20035;-72
2021/06/04 03:08:57;;;;;;;7.03;4.88;;;;;;;13.94;58.40;102399.03;5079410;28;20465;-72
2021/06/04 03:11:23;;;;;;;7.28;5.22;;;;;;;13.93;58.36;102388.31;5074620;28;20387;-72
2021/06/04 03:13:48;;;;;;;7.85;4.70;;;;;;;13.94;58.67;102389.97;5075341;28;20025;-71
2021/06/04 03:16:18;;;;;;;8.32;5.22;;;;;;;13.97;58.65;102394.97;5077712;28;20035;-72
2021/06/04 03:18:47;;;;;;;7.10;4.25;;;;;;;13.97;58.53;102395.78;5083519;28;20111;-72
2021/06/04 03:21:21;;;;;;;8.60;4.43;;;;;;;13.99;58.68;102398.25;5081933;28;20393;-72
2021/06/04 03:23:47;;;;;;;6.13;4.55;;;;;;;14.01;58.83;102393.34;5058368;28;20020;-72
2021/06/04 03:26:16;;;;;;;5.32;4.38;;;;;;;14.04;58.89;102395.56;5072533;28;20431;-71
2021/06/04 03:28:41;;;;;;;7.50;4.43;;;;;;;14.07;58.77;102389.56;5071243;28;20115;-72
2021/06/04 03:31:08;;;;;;;5.63;4.68;;;;;;;14.11;58.80;102392.63;5067916;28;20028;-72
2021/06/04 03:33:34;;;;;;;6.63;4.80;;;;;;;14.13;58.72;102399.53;5073343;28;20040;-72
2021/06/04 03:36:15;;;;;;;4.75;4.35;;;;;;;14.15;58.91;102385.53;5072793;28;20031;-72
2021/06/04 03:38:40;;;;;;;6.25;4.90;;;;;;;14.17;58.65;102384.19;5069598;28;20073;-72
2021/06/04 03:41:08;;;;;;;7.70;4.70;;;;;;;14.20;58.86;102372.69;5075754;28;20024;-72
2021/06/04 03:43:33;;;;;;;6.35;4.72;;;;;;;14.24;58.82;102378.50;5059509;28;20020;-72
2021/06/04 03:45:59;;;;;;;10.95;5.15;;;;;;;14.27;58.89;102377.13;5058189;28;20024;-72
2021/06/04 03:48:28;;;;;;;5.75;4.18;;;;;;;14.32;58.72;102374.44;5073550;28;20413;-72
2021/06/04 03:50:56;;;;;;;4.60;4.20;;;;;;;14.36;58.77;102378.34;5070631;28;20449;-72
2021/06/04 03:53:21;;;;;;;6.70;4.20;;;;;;;14.39;58.71;102370.41;5067062;28;20118;-72
2021/06/04 03:55:47;;;;;;;5.30;3.95;;;;;;;14.44;58.48;102372.38;5074018;28;20020;-72
2021/06/04 03:58:13;;;;;;;5.45;4.80;;;;;;;14.48;58.52;102368.00;5082401;28;20028;-72
2021/06/04 04:00:47;;;;;;;6.75;4.47;;;;;;;14.55;58.64;102367.84;5073582;28;20036;-72
2021/06/04 04:03:14;;;;;;;6.63;3.92;;;;;;;14.60;58.61;102371.44;5073749;28;20060;-73
2021/06/04 04:05:39;;;;;;;6.00;4.20;;;;;;;14.64;58.48;102372.56;5074154;28;20070;-73
2021/06/04 04:08:05;;;;;;;9.73;4.70;;;;;;;14.71;58.44;102377.03;5072484;28;20032;-72
2021/06/04 04:10:30;;;;;;;5.68;4.00;;;;;;;14.76;58.47;102374.31;5073548;28;20243;-73
2021/06/04 04:12:56;;;;;;;8.27;4.00;;;;;;;14.80;58.51;102369.94;5074941;28;20089;-73
2021/06/04 04:15:23;;;;;;;5.18;4.43;;;;;;;14.85;58.22;102372.72;5073512;28;20085;-73
2021/06/04 04:17:50;;;;;;;6.30;4.30;;;;;;;14.88;58.29;102361.22;5075550;28;20028;-72
2021/06/04 04:20:24;;;;;;;8.68;4.57;;;;;;;14.94;58.06;102371.13;5067441;28;20405;-73
2021/06/04 04:22:49;;;;;;;7.15;4.25;;;;;;;14.99;57.84;102368.44;5056073;28;20420;-73
2021/06/04 04:25:15;;;;;;;6.25;3.75;;;;;;;15.01;57.55;102363.50;5072942;28;20029;-73
2021/06/04 04:27:40;;;;;;;5.95;3.42;;;;;;;15.05;57.54;102361.88;5056002;28;20024;-73
2021/06/04 04:30:07;;;;;;;5.38;3.88;;;;;;;15.09;57.79;102354.78;5074186;28;20054;-72
2021/06/04 04:32:33;;;;;;;5.80;4.22;;;;;;;15.15;57.76;102360.28;5083369;28;20031;-73
2021/06/04 04:34:58;;;;;;;6.15;4.20;;;;;;;15.16;57.40;102365.50;5072417;28;20717;-73
2021/06/04 04:37:23;;;;;;;3.75;3.35;;;;;;;15.20;57.36;102357.59;5073569;28;20025;-73
2021/06/04 04:39:49;;;;;;;4.30;3.90;;;;;;;15.24;57.24;102366.94;5067265;28;20031;-73
2021/06/04 04:42:21;;;;;;;8.20;4.30;;;;;;;15.29;57.17;102358.72;5074502;28;20062;-73
2021/06/04 04:44:47;;;;;;;;;;;;;;;15.33;56.93;102359.81;5057232;28;20020;-73
2021/06/04 04:47:14;;;;;;;5.68;3.47;;;;;;;15.38;56.94;102359.84;5074430;28;20273;-73
2021/06/04 04:49:39;;;;;;;6.78;4.40;;;;;;;15.39;56.87;102358.78;5030642;28;20037;-73
2021/06/04 04:52:11;;;;;;;5.03;3.78;;;;;;;15.44;56.93;102358.81;5069987;28;20032;-72
2021/06/04 04:54:39;;;;;;;4.22;3.83;;;;;;;15.49;56.76;102360.72;5071243;28;20411;-73
2021/06/04 04:57:05;;;;;;;5.57;3.80;;;;;;;15.50;56.55;102357.72;5077211;28;20040;-73
2021/06/04 04:59:31;;;;;;;3.90;3.60;;;;;;;15.53;56.57;102357.19;5072049;28;20389;-73
2021/06/04 05:01:56;;;;;;;6.35;4.22;;;;;;;15.57;56.51;102360.22;5074449;28;20367;-72
2021/06/04 05:04:22;;;;;;;7.32;3.65;;;;;;;15.60;56.67;102351.41;5070175;28;20024;-73
2021/06/04 05:06:47;;;;;;;5.20;4.15;;;;;;;15.64;56.43;102352.53;5081969;28;20043;-74
2021/06/04 05:09:12;;;;;;;4.53;4.07;;;;;;;15.68;56.33;102353.69;5072098;28;20020;-72
2021/06/04 05:11:38;;;;;;;5.00;3.47;;;;;;;15.71;56.02;102349.56;5073654;28;20039;-69
2021/06/04 05:14:04;;;;;;;7.10;4.13;;;;;;;15.75;55.87;102346.00;5072036;28;20443;-72
2021/06/04 05:16:30;;;;;;;6.50;4.32;;;;;;;15.81;55.72;102352.34;5073326;28;20017;-72
2021/06/04 05:18:55;;;;;;;8.32;4.20;;;;;;;15.85;55.43;102350.72;5069785;28;20093;-71
2021/06/04 05:21:21;;;;;;;7.90;4.32;;;;;;;15.91;55.36;102352.38;5039295;28;20106;-72
2021/06/04 05:23:46;;;;;;;4.53;3.97;;;;;;;15.94;55.13;102346.31;5073896;28;20029;-73
2021/06/04 05:26:12;;;;;;;5.28;3.40;;;;;;;16.01;55.04;102334.22;5071942;28;20024;-73
2021/06/04 05:28:38;;;;;;;5.53;3.22;;;;;;;16.05;54.89;102341.69;5083821;28;20020;-70
2021/06/04 05:31:07;;;;;;;10.48;3.90;;;;;;;16.10;54.67;102349.13;5055258;28;20028;-72
2021/06/04 05:33:34;;;;;;;5.97;4.15;;;;;;;16.17;54.55;102347.72;5063802;28;20120;-72
2021/06/04 05:36:01;;;;;;;4.72;3.70;;;;;;;16.23;54.47;102347.75;5066555;28;20108;-72
2021/06/04 05:38:27;;;;;;;9.43;3.88;;;;;;;16.30;54.52;102351.06;5072953;28;20112;-73
2021/06/04 05:40:53;;;;;;;5.47;3.70;;;;;;;16.36;54.28;102350.78;5052823;28;20104;-72
2021/06/04 05:43:22;;;;;;;8.30;3.92;;;;;;;16.46;54.33;102349.16;5071669;28;20032;-72
2021/06/04 05:45:47;;;;;;;4.05;3.65;;;;;;;16.53;54.08;102346.91;5065475;28;20051;-73
2021/06/04 05:48:13;;;;;;;5.00;3.67;;;;;;;16.59;53.81;102346.66;5064711;28;20047;-73
2021/06/04 05:50:42;;;;;;;5.50;3.83;;;;;;;16.64;53.74;102343.06;5049112;28;20055;-72
2021/06/04 05:53:08;;;;;;;5.18;3.25;;;;;;;16.69;53.54;102350.50;5066038;28;20033;-73
2021/06/04 05:55:35;;;;;;;5.72;4.10;;;;;;;16.75;53.51;102350.22;5070531;28;20037;-73
2021/06/04 05:58:01;;;;;;;10.40;4.05;;;;;;;16.80;53.30;102347.47;5066868;28;20029;-73
2021/06/04 06:00:29;;;;;;;4.57;4.07;;;;;;;16.86;53.22;102346.38;5067544;28;20134;-73
2021/06/04 06:02:55;;;;;;;7.55;3.97;;;;;;;16.93;53.25;102345.25;5069024;28;20420;-73
2021/06/04 06:05:21;;;;;;;8.45;4.15;;;;;;;17.02;53.07;102349.09;5073036;28;20016;-73
2021/06/04 06:07:46;;;;;;;5.35;4.22;;;;;;;17.06;52.81;102347.44;5069692;28;20104;-73
2021/06/04 06:10:12;;;;;;;7.40;3.67;;;;;;;17.13;52.78;102350.72;5066942;28;20021;-73
2021/06/04 06:12:37;;;;;;;7.03;3.80;;;;;;;17.21;52.73;102352.91;5073701;28;20024;-74
2021/06/04 06:15:03;;;;;;;5.47;4.15;;;;;;;17.29;52.45;102346.81;5070841;28;20039;-73
2021/06/04 06:17:29;;;;;;;8.68;4.35;;;;;;;17.36;52.38;102352.03;5068265;28;20036;-73
2021/06/04 06:19:54;;;;;;;4.95;3.90;;;;;;;17.44;52.31;102356.13;5062641;28;20021;-74
2021/06/04 06:22:20;;;;;;;9.07;3.70;;;;;;;17.51;52.26;102356.66;5066296;28;20021;-72
2021/06/04 06:24:45;;;;;;;4.93;4.38;;;;;;;17.59;52.06;102361.56;5067985;28;20028;-73
2021/06/04 06:27:10;;;;;;;7.50;3.78;;;;;;;17.68;51.76;102356.31;5069221;28;20032;-74
2021/06/04 06:29:37;;;;;;;5.03;4.00;;;;;;;17.78;51.88;102350.72;5069272;28;20020;-72
2021/06/04 06:32:04;;;;;;;6.68;3.63;;;;;;;17.88;51.57;102356.22;5066614;28;20496;-74
2021/06/04 06:34:30;;;;;;;6.88;3.78;;;;;;;17.97;51.58;102357.25;5069086;28;20127;-73
2021/06/04 06:36:55;;;;;;;6.03;3.38;;;;;;;18.03;51.27;102355.28;5066641;28;20039;-75
2021/06/04 06:39:24;;;;;;;6.50;3.58;;;;;;;18.07;51.16;102359.13;5068926;28;20032;-73
2021/06/04 06:41:50;;;;;;;10.80;4.68;;;;;;;18.14;51.04;102356.91;5041859;28;20428;-74
2021/06/04 06:44:15;;;;;;;12.75;4.30;;;;;;;18.24;50.92;102363.44;5052184;28;20212;-74
2021/06/04 06:46:41;;;;;;;7.63;3.53;;;;;;;18.33;50.53;102365.31;5066152;28;20465;-75
2021/06/04 06:49:07;;;;;;;6.93;4.25;;;;;;;18.42;50.21;102376.56;5064473;28;20027;-75
2021/06/04 06:51:33;;;;;;;6.03;3.42;;;;;;;18.50;49.98;102361.31;5074137;28;20032;-74
2021/06/04 06:53:59;;;;;;;5.93;3.58;;;;;;;18.61;49.71;102363.69;5069547;28;20036;-73
2021/06/04 06:56:24;;;;;;;9.18;3.80;;;;;;;18.70;49.54;102366.66;5071310;28;20115;-73
2021/06/04 06:58:50;;;;;;;7.38;4.25;;;;;;;18.83;49.38;102366.00;5074037;28;20029;-73
2021/06/04 07:01:15;;;;;;;5.85;3.88;;;;;;;18.96;48.72;102364.50;5070660;28;20028;-73
2021/06/04 07:03:41;;;;;;;4.85;3.78;;;;;;;19.03;48.66;102370.50;5070374;28;20363;-72
2021/06/04 07:06:16;;;;;;;8.15;3.58;;;;;;;19.13;48.40;102368.75;5070251;28;20347;-73
2021/06/04 07:08:41;;;;;;;8.18;3.38;;;;;;;19.23;48.20;102357.56;5070579;28;20063;-72
2021/06/04 07:11:07;;;;;;;8.80;4.40;;;;;;;19.34;47.91;102366.56;5073898;28;20024;-72
2021/06/04 07:13:32;;;;;;;4.55;3.30;;;;;;;19.42;47.59;102368.69;5074363;28;20028;-72
2021/06/04 07:16:00;;;;;;;7.90;3.55;;;;;;;19.50;47.45;102368.03;5071178;28;20024;-72
2021/06/04 07:18:25;;;;;;;5.53;3.35;;;;;;;19.57;47.34;102362.97;5070687;28;20028;-72
2021/06/04 07:20:51;;;;;;;6.22;3.83;;;;;;;19.64;46.85;102370.88;5054135;28;20024;-72
2021/06/04 07:23:17;;;;;;;6.43;3.65;;;;;;;19.72;46.85;102365.56;5064890;28;20628;-72
2021/06/04 07:25:44;;;;;;;7.05;3.30;;;;;;;19.81;46.36;102362.97;5062629;28;20499;-72
2021/06/04 07:28:10;;;;;;;5.30;3.55;;;;;;;19.91;46.41;102362.78;5066308;28;20028;-73
2021/06/04 07:30:38;;;;;;;5.35;3.53;;;;;;;19.98;45.96;102361.63;5068349;28;20028;-72
2021/06/04 07:33:06;;;;;;;5.40;3.58;;;;;;;20.08;45.57;102361.44;5071048;28;20025;-72
2021/06/04 07:35:33;;;;;;;4.57;3.50;;;;;;;20.20;45.37;102356.28;5067443;28;20473;-72
2021/06/04 07:37:58;;;;;;;4.72;3.38;;;;;;;20.29;45.22;102357.22;5052662;28;20488;-72
2021/06/04 07:40:26;;;;;;;4.75;3.40;;;;;;;20.39;44.88;102356.25;5069754;28;20037;-73
2021/06/04 07:42:51;;;;;;;7.53;3.45;;;;;;;20.47;44.63;102351.97;5079697;28;20552;-73
2021/06/04 07:45:17;;;;;;;5.13;3.00;;;;;;;20.54;44.31;102347.72;5053333;28;20020;-73
2021/06/04 07:47:43;;;;;;;5.75;3.17;;;;;;;20.61;44.43;102353.69;5069783;28;20052;-72
2021/06/04 07:50:09;;;;;;;5.90;3.10;;;;;;;20.70;44.08;102348.25;5072618;28;20028;-73
2021/06/04 07:52:35;;;;;;;6.80;3.78;;;;;;;20.82;43.93;102356.91;5079231;28;20062;-72
2021/06/04 07:55:00;;;;;;;8.80;3.45;;;;;;;20.95;43.33;102346.13;5072606;28;20064;-72
2021/06/04 07:57:26;;;;;;;6.45;3.72;;;;;;;21.05;43.02;102357.03;5076043;28;20090;-72
2021/06/04 07:59:52;;;;;;;4.57;3.17;;;;;;;21.16;42.69;102355.72;5072768;28;20035;-72
2021/06/04 08:02:17;;;;;;;4.88;2.92;;;;;;;21.25;42.73;102355.81;5072650;28;20039;-72
2021/06/04 08:04:43;;;;;;;4.63;3.47;;;;;;;21.35;42.36;102352.03;5074502;28;20025;-72
2021/06/04 08:07:08;;;;;;;7.70;3.33;;;;;;;21.47;41.89;102346.78;5071028;28;20024;-72
2021/06/04 08:09:34;;;;;;;4.53;2.63;;;;;;;21.63;41.48;102356.44;5066238;28;20082;-73
2021/06/04 08:12:01;;;;;;;6.40;2.65;;;;;;;21.76;41.33;102354.78;5063258;28;20082;-72
2021/06/04 08:14:26;;;;;;;3.70;2.97;;;;;;;21.87;40.99;102356.19;5051475;28;20048;-72
2021/06/04 08:16:54;;;;;;;3.47;2.75;;;;;;;21.99;41.02;102355.66;5071751;28;20032;-72
2021/06/04 08:19:19;;;;;;;4.05;2.58;;;;;;;22.08;40.51;102353.75;5071808;28;20078;-72
2021/06/04 08:21:47;;;;;;;3.78;2.72;;;;;;;22.15;40.11;102350.53;5072864;28;20028;-72
2021/06/04 08:24:14;;;;;;;5.45;2.70;;;;;;;22.25;39.52;102350.31;5071535;28;20028;-72
2021/06/04 08:26:39;;;;;;;3.75;3.00;;;;;;;22.34;39.05;102342.88;5051930;28;20481;-71
2021/06/04 08:29:05;;;;;;;5.15;2.90;;;;;;;22.37;38.01;102349.75;5071513;28;20048;-71
2021/06/04 08:31:31;;;;;;;3.70;3.08;;;;;;;22.33;37.83;102357.09;5073471;28;20431;-72
2021/06/04 08:33:56;;;;;;;10.35;4.13;;;;;;;22.39;37.96;102344.69;5071630;28;20055;-73
2021/06/04 08:36:25;;;;;;;4.28;2.63;;;;;;;22.55;37.80;102348.72;5067694;28;20024;-73
2021/06/04 08:38:51;;;;;;;4.03;2.47;;;;;;;22.72;37.92;102347.19;5071472;28;20031;-72
2021/06/04 08:41:28;;;;;;;4.57;2.72;;;;;;;22.89;37.59;102344.50;5071118;28;20458;-72
2021/06/04 08:44:18;;;;;;;4.28;2.85;;;;;;;22.98;36.56;102339.00;5070639;28;20021;-72
2021/06/04 08:46:46;;;;;;;3.40;2.60;;;;;;;23.02;36.97;102335.25;5063457;28;20119;-73
2021/06/04 08:49:27;;;;;;;4.28;2.30;;;;;;;23.13;36.36;102334.97;5051868;28;20029;-72
2021/06/04 08:52:14;;;;;;;3.42;2.22;;;;;;;23.29;36.74;102332.56;5051986;28;20035;-73
2021/06/04 08:55:03;;;;;;;3.53;2.30;;;;;;;23.41;36.26;102335.56;5062595;28;20078;-72
2021/06/04 08:57:38;;;;;;;2.88;2.35;;;;;;;23.55;35.80;102336.25;5052837;28;20029;-73
2021/06/04 09:00:13;;;;;;;3.22;2.92;;;;;;;23.63;35.89;102332.66;5064970;28;20393;-72
2021/06/04 09:02:42;;;;;;;4.47;2.60;;;;;;;23.75;36.25;102329.25;5092437;28;20362;-73
2021/06/04 09:05:14;;;;;;;3.72;2.60;;;;;;;23.87;35.77;102331.38;5063213;28;20100;-72
2021/06/04 09:07:41;;;;;;;;;;;;;;;23.98;36.02;102335.50;5054395;28;20028;-72
2021/06/04 09:10:25;;;;;;;3.80;2.70;;;;;;;24.13;35.59;102329.41;5063244;28;19920;-71
2021/06/04 09:12:56;;;;;;;3.72;2.65;;;;;;;24.27;35.10;102334.00;5072000;28;20036;-72
2021/06/04 09:15:27;;;;;;;4.05;2.80;;;;;;;24.35;34.57;102336.75;5069162;28;22391;-72
2021/06/04 09:18:04;;;;;;;6.80;3.20;;;;;;;24.49;33.90;102325.44;5068568;28;20099;-72
2021/06/04 09:20:45;;;;;;;6.05;2.72;;;;;;;24.60;33.52;102328.69;5072526;28;20277;-72
2021/06/04 09:23:11;;;;;;;8.63;2.80;;;;;;;24.53;33.45;102325.63;5068699;28;20039;-72
2021/06/04 09:25:37;;;;;;;2.95;2.45;;;;;;;24.57;34.26;102324.59;5068141;28;20024;-71
2021/06/04 09:28:12;;;;;;;3.70;2.83;;;;;;;24.69;34.23;102326.72;5065302;28;20035;-72
2021/06/04 09:30:44;;;;;;;3.58;2.70;;;;;;;24.84;33.60;102330.13;5073297;28;20040;-72
2021/06/04 09:33:19;;;;;;;5.22;2.53;;;;;;;24.93;33.20;102333.69;5060069;28;20047;-71
2021/06/04 09:36:02;;;;;;;4.75;2.70;;;;;;;25.05;33.48;102327.41;5060891;28;20541;-71
2021/06/04 09:38:38;;;;;;;3.85;2.58;;;;;;;25.26;33.43;102325.50;5087170;28;20032;-71
2021/06/04 09:41:25;;;;;;;3.67;2.70;;;;;;;25.39;33.58;102329.22;5067972;28;20126;-72
2021/06/04 09:44:08;;;;;;;4.72;3.33;;;;;;;25.39;32.53;102323.63;5062046;28;20028;-71
2021/06/04 09:47:15;;;;;;;7.97;2.65;;;;;;;25.25;32.26;102330.28;5069767;28;20535;-72
2021/06/04 09:49:40;;;;;;;3.67;3.03;;;;;;;25.27;31.47;102327.16;5057547;28;20377;-72
2021/06/04 09:52:20;;;;;;;6.63;2.97;;;;;;;25.16;31.44;102320.31;5071407;28;20029;-71
2021/06/04 09:54:46;;;;;;;8.90;3.25;;;;;;;25.11;31.45;102324.09;5069528;28;20103;-71
2021/06/04 09:57:14;;;;;;;4.22;2.80;;;;;;;25.03;31.45;102320.16;5052820;28;20401;-73
2021/06/04 09:59:39;;;;;;;5.72;2.83;;;;;;;24.96;31.54;102321.84;5052471;28;20029;-72
2021/06/04 10:02:31;;;;;;;6.55;3.10;;;;;;;25.02;31.52;102320.53;5070976;28;20024;-72
2021/06/04 10:05:35;;;;;;;3.00;2.80;;;;;;;25.20;31.63;102316.50;5086161;28;20025;-72
2021/06/04 10:08:05;;;;;;;6.00;3.00;;;;;;;25.32;31.79;102318.59;5067857;28;20089;-72
2021/06/04 10:10:36;;;;;;;3.95;3.15;;;;;;;25.63;31.79;102322.97;5050488;28;20095;-72
2021/06/04 10:13:04;;;;;;;4.13;3.13;;;;;;;25.81;33.06;102316.09;5068344;28;20056;-73
2021/06/04 10:15:31;;;;;;;4.15;3.03;;;;;;;25.60;33.65;102318.06;5062661;28;20120;-71
2021/06/04 10:20:23;;;;;;;3.00;2.80;;;;;;;25.01;35.08;102313.28;5062423;28;20024;-71
2021/06/04 10:22:49;;;;;;;7.38;3.50;;;;;;;25.01;35.03;102318.88;5067788;28;20474;-72
2021/06/04 10:25:18;;;;;;;4.35;2.70;;;;;;;25.00;34.45;102311.66;5049467;28;20489;-72
2021/06/04 10:27:47;;;;;;;3.40;3.10;;;;;;;25.00;33.89;102311.66;5069646;28;20462;-72
2021/06/04 10:30:17;;;;;;;3.65;2.67;;;;;;;25.11;33.56;102312.09;5068911;28;20051;-71
2021/06/04 10:32:54;;;;;;;4.55;3.15;;;;;;;25.11;33.46;102312.91;5068768;28;20107;-72
2021/06/04 10:35:38;;;;;;;7.22;3.38;;;;;;;25.10;33.63;102316.88;5068464;28;20502;-73
2021/06/04 10:38:04;;;;;;;5.68;3.03;;;;;;;25.19;33.63;102314.88;5060119;28;20029;-71
2021/06/04 10:40:39;;;;;;;4.05;3.42;;;;;;;25.27;33.62;102309.59;5067361;28;20481;-72
2021/06/04 10:43:26;;;;;;;3.10;2.90;;;;;;;25.21;33.32;102312.56;5065464;28;20050;-71
2021/06/04 10:46:04;;;;;;;4.25;3.50;;;;;;;25.14;33.02;102312.25;5067829;28;20119;-72
2021/06/04 10:48:45;;;;;;;5.28;3.08;;;;;;;25.21;33.56;102311.75;5065894;28;20020;-72
2021/06/04 10:51:34;;;;;;;5.15;3.40;;;;;;;25.14;33.76;102309.44;5064112;28;20025;-72
2021/06/04 10:54:18;;;;;;;3.55;3.00;;;;;;;25.38;33.31;102308.03;5042563;28;20055;-72
2021/06/04 10:56:48;;;;;;;5.35;3.08;;;;;;;25.51;32.40;102304.19;5066873;28;20028;-73
2021/06/04 10:59:25;;;;;;;4.43;3.33;;;;;;;25.38;32.39;102308.03;5068980;28;20025;-72
2021/06/04 11:02:11;;;;;;;8.50;3.15;;;;;;;25.37;32.64;102311.97;5075227;28;20017;-73
2021/06/04 11:04:48;;;;;;;3.92;2.95;;;;;;;25.25;31.71;102304.34;5057594;28;20060;-73
2021/06/04 11:07:16;;;;;;;3.05;2.45;;;;;;;25.25;31.98;102313.53;5061021;28;20033;-70
2021/06/04 11:10:15;;;;;;;3.20;2.83;;;;;;;25.40;31.72;102309.34;5068444;28;20047;-71
2021/06/04 11:13:02;;;;;;;4.80;3.00;;;;;;;25.50;31.75;102308.09;5062204;28;20024;-70
2021/06/04 11:15:30;;;;;;;5.40;2.80;;;;;;;25.48;31.22;102310.41;5069275;28;20028;-70
2021/06/04 11:18:02;;;;;;;6.82;2.97;;;;;;;25.57;31.38;102302.81;5068358;28;20028;-73
2021/06/04 11:20:36;;;;;;;3.45;2.67;;;;;;;25.72;30.57;102292.19;5066110;28;20024;-74
2021/06/04 11:23:13;;;;;;;4.22;2.78;;;;;;;25.98;30.49;102301.19;5070424;28;20036;-74
2021/06/04 11:25:51;;;;;;;3.58;3.00;;;;;;;26.06;29.82;102294.69;5071440;28;20065;-74
2021/06/04 11:28:43;;;;;;;3.22;2.92;;;;;;;26.25;30.26;102287.78;5055437;28;20028;-74
2021/06/04 11:31:32;;;;;;;4.43;2.90;;;;;;;26.48;30.19;102288.19;5074494;28;20030;-74
2021/06/04 11:34:02;;;;;;;5.80;3.13;;;;;;;26.59;29.08;102286.59;5068110;28;20044;-74
2021/06/04 11:36:31;;;;;;;4.10;2.78;;;;;;;26.83;29.41;102285.81;5070467;28;20017;-75
2021/06/04 11:39:25;;;;;;;5.53;3.22;;;;;;;26.95;28.80;102271.81;5074813;28;20020;-74
2021/06/04 11:41:53;;;;;;;4.97;2.58;;;;;;;26.98;29.37;102276.72;5062416;28;20045;-74